sensor_id;sensor_type;location;lat;lon;timestamp;P1;durP1;ratioP1;P2;durP2;ratioP2
56991;SDS011;42885;49.754;18.636;2022-12-18T00:01:53;91.08;;;30.75;;
56991;SDS011;42885;49.754;18.636;2022-12-18T00:04:26;81.65;;;27.90;;
56991;SDS011;42885;49.754;18.636;2022-12-18T00:06:57;90.25;;;28.62;;
56991;SDS011;42885;49.754;18.636;2022-12-18T00:09:28;93.10;;;29.30;;
56991;SDS011;42885;49.754;18.636;2022-12-18T00:12:00;88.75;;;29.35;;
56991;SDS011;42885;49.754;18.636;2022-12-18T00:14:31;87.08;;;29.80;;
56991;SDS011;42885;49.754;18.636;2022-12-18T00:17:02;87.27;;;29.43;;
56991;SDS011;42885;49.754;18.636;2022-12-18T00:19:33;96.83;;;30.30;;
56991;SDS011;42885;49.754;18.636;2022-12-18T00:22:04;84.22;;;30.12;;
56991;SDS011;42885;49.754;18.636;2022-12-18T00:24:35;79.00;;;27.25;;
56991;SDS011;42885;49.754;18.636;2022-12-18T00:27:06;79.67;;;27.82;;
56991;SDS011;42885;49.754;18.636;2022-12-18T00:29:37;86.42;;;27.00;;
56991;SDS011;42885;49.754;18.636;2022-12-18T00:32:08;81.57;;;28.12;;
56991;SDS011;42885;49.754;18.636;2022-12-18T00:34:39;89.50;;;29.30;;
56991;SDS011;42885;49.754;18.636;2022-12-18T00:37:10;86.08;;;29.82;;
56991;SDS011;42885;49.754;18.636;2022-12-18T00:39:41;88.67;;;27.17;;
56991;SDS011;42885;49.754;18.636;2022-12-18T00:42:12;81.80;;;27.65;;
56991;SDS011;42885;49.754;18.636;2022-12-18T00:45:02;78.73;;;27.90;;
56991;SDS011;42885;49.754;18.636;2022-12-18T00:47:33;78.42;;;27.10;;
56991;SDS011;42885;49.754;18.636;2022-12-18T00:50:04;77.08;;;26.73;;
56991;SDS011;42885;49.754;18.636;2022-12-18T00:52:36;82.00;;;27.32;;
56991;SDS011;42885;49.754;18.636;2022-12-18T00:55:11;77.78;;;26.80;;
56991;SDS011;42885;49.754;18.636;2022-12-18T00:57:43;77.62;;;26.93;;
56991;SDS011;42885;49.754;18.636;2022-12-18T01:00:14;65.30;;;23.05;;
56991;SDS011;42885;49.754;18.636;2022-12-18T01:02:45;74.82;;;24.80;;
56991;SDS011;42885;49.754;18.636;2022-12-18T01:05:17;65.92;;;25.50;;
56991;SDS011;42885;49.754;18.636;2022-12-18T01:07:48;80.97;;;26.93;;
56991;SDS011;42885;49.754;18.636;2022-12-18T01:10:19;71.12;;;25.88;;
56991;SDS011;42885;49.754;18.636;2022-12-18T01:12:50;75.62;;;25.23;;
56991;SDS011;42885;49.754;18.636;2022-12-18T01:15:21;71.33;;;25.23;;
56991;SDS011;42885;49.754;18.636;2022-12-18T01:17:53;64.87;;;24.63;;
56991;SDS011;42885;49.754;18.636;2022-12-18T01:20:24;68.42;;;22.65;;
56991;SDS011;42885;49.754;18.636;2022-12-18T01:22:55;71.77;;;24.10;;
56991;SDS011;42885;49.754;18.636;2022-12-18T01:25:26;66.30;;;24.15;;
56991;SDS011;42885;49.754;18.636;2022-12-18T01:27:57;74.15;;;25.00;;
56991;SDS011;42885;49.754;18.636;2022-12-18T01:30:28;68.37;;;24.70;;
56991;SDS011;42885;49.754;18.636;2022-12-18T01:32:59;66.12;;;25.25;;
56991;SDS011;42885;49.754;18.636;2022-12-18T01:35:30;57.30;;;21.70;;
56991;SDS011;42885;49.754;18.636;2022-12-18T01:38:01;66.62;;;24.15;;
56991;SDS011;42885;49.754;18.636;2022-12-18T01:40:32;61.53;;;23.43;;
56991;SDS011;42885;49.754;18.636;2022-12-18T01:43:03;65.55;;;23.55;;
56991;SDS011;42885;49.754;18.636;2022-12-18T01:45:34;66.37;;;24.20;;
56991;SDS011;42885;49.754;18.636;2022-12-18T01:48:06;60.60;;;22.98;;
56991;SDS011;42885;49.754;18.636;2022-12-18T01:50:40;67.17;;;23.27;;
56991;SDS011;42885;49.754;18.636;2022-12-18T01:53:16;68.40;;;23.60;;
56991;SDS011;42885;49.754;18.636;2022-12-18T01:55:50;65.17;;;24.55;;
56991;SDS011;42885;49.754;18.636;2022-12-18T01:58:25;61.68;;;21.20;;
56991;SDS011;42885;49.754;18.636;2022-12-18T02:01:06;60.83;;;21.80;;
56991;SDS011;42885;49.754;18.636;2022-12-18T02:03:40;64.30;;;22.85;;
56991;SDS011;42885;49.754;18.636;2022-12-18T02:06:16;65.05;;;22.65;;
56991;SDS011;42885;49.754;18.636;2022-12-18T02:14:18;59.83;;;19.98;;
56991;SDS011;42885;49.754;18.636;2022-12-18T02:17:06;65.15;;;21.33;;
56991;SDS011;42885;49.754;18.636;2022-12-18T02:19:45;61.73;;;21.50;;
56991;SDS011;42885;49.754;18.636;2022-12-18T02:25:05;52.80;;;20.25;;
56991;SDS011;42885;49.754;18.636;2022-12-18T02:27:44;63.30;;;20.92;;
56991;SDS011;42885;49.754;18.636;2022-12-18T02:30:16;60.12;;;21.42;;
56991;SDS011;42885;49.754;18.636;2022-12-18T02:32:49;57.80;;;20.82;;
56991;SDS011;42885;49.754;18.636;2022-12-18T02:35:23;61.25;;;21.12;;
56991;SDS011;42885;49.754;18.636;2022-12-18T02:37:57;61.85;;;21.02;;
56991;SDS011;42885;49.754;18.636;2022-12-18T02:40:30;58.28;;;21.87;;
56991;SDS011;42885;49.754;18.636;2022-12-18T02:43:06;54.20;;;20.30;;
56991;SDS011;42885;49.754;18.636;2022-12-18T02:45:49;62.55;;;21.77;;
56991;SDS011;42885;49.754;18.636;2022-12-18T02:48:32;64.50;;;21.37;;
56991;SDS011;42885;49.754;18.636;2022-12-18T02:54:10;61.50;;;20.68;;
56991;SDS011;42885;49.754;18.636;2022-12-18T02:56:35;62.85;;;23.10;;
56991;SDS011;42885;49.754;18.636;2022-12-18T02:59:07;63.60;;;21.45;;
56991;SDS011;42885;49.754;18.636;2022-12-18T03:04:35;63.48;;;22.10;;
56991;SDS011;42885;49.754;18.636;2022-12-18T03:07:19;60.80;;;21.00;;
56991;SDS011;42885;49.754;18.636;2022-12-18T03:09:53;60.23;;;21.77;;
56991;SDS011;42885;49.754;18.636;2022-12-18T03:12:31;60.17;;;21.70;;
56991;SDS011;42885;49.754;18.636;2022-12-18T03:15:12;64.17;;;21.20;;
56991;SDS011;42885;49.754;18.636;2022-12-18T03:18:08;58.38;;;21.73;;
56991;SDS011;42885;49.754;18.636;2022-12-18T03:20:44;57.43;;;21.50;;
56991;SDS011;42885;49.754;18.636;2022-12-18T03:23:20;63.78;;;22.17;;
56991;SDS011;42885;49.754;18.636;2022-12-18T03:25:54;60.00;;;21.70;;
56991;SDS011;42885;49.754;18.636;2022-12-18T03:28:28;58.58;;;22.07;;
56991;SDS011;42885;49.754;18.636;2022-12-18T03:31:02;65.75;;;23.22;;
56991;SDS011;42885;49.754;18.636;2022-12-18T03:33:55;55.60;;;21.15;;
56991;SDS011;42885;49.754;18.636;2022-12-18T03:36:31;59.33;;;22.00;;
56991;SDS011;42885;49.754;18.636;2022-12-18T03:39:03;60.43;;;21.07;;
56991;SDS011;42885;49.754;18.636;2022-12-18T03:45:18;60.03;;;22.65;;
56991;SDS011;42885;49.754;18.636;2022-12-18T03:47:14;60.65;;;21.52;;
56991;SDS011;42885;49.754;18.636;2022-12-18T03:49:52;53.33;;;20.63;;
56991;SDS011;42885;49.754;18.636;2022-12-18T03:52:33;60.52;;;22.80;;
56991;SDS011;42885;49.754;18.636;2022-12-18T03:55:08;67.22;;;23.20;;
56991;SDS011;42885;49.754;18.636;2022-12-18T03:57:41;66.17;;;21.67;;
56991;SDS011;42885;49.754;18.636;2022-12-18T04:00:15;59.53;;;22.90;;
56991;SDS011;42885;49.754;18.636;2022-12-18T04:02:56;60.25;;;23.15;;
56991;SDS011;42885;49.754;18.636;2022-12-18T04:05:31;60.23;;;22.32;;
56991;SDS011;42885;49.754;18.636;2022-12-18T04:08:06;56.77;;;21.05;;
56991;SDS011;42885;49.754;18.636;2022-12-18T04:10:38;65.00;;;22.37;;
56991;SDS011;42885;49.754;18.636;2022-12-18T04:13:10;66.15;;;22.13;;
56991;SDS011;42885;49.754;18.636;2022-12-18T04:15:41;55.40;;;20.17;;
56991;SDS011;42885;49.754;18.636;2022-12-18T04:18:13;61.43;;;21.53;;
56991;SDS011;42885;49.754;18.636;2022-12-18T04:20:44;55.85;;;20.05;;
56991;SDS011;42885;49.754;18.636;2022-12-18T04:23:16;51.75;;;19.35;;
56991;SDS011;42885;49.754;18.636;2022-12-18T04:25:47;54.65;;;20.60;;
56991;SDS011;42885;49.754;18.636;2022-12-18T04:28:20;64.67;;;21.60;;
56991;SDS011;42885;49.754;18.636;2022-12-18T04:30:51;58.05;;;20.88;;
56991;SDS011;42885;49.754;18.636;2022-12-18T04:33:24;60.15;;;22.67;;
56991;SDS011;42885;49.754;18.636;2022-12-18T04:35:55;57.65;;;21.60;;
56991;SDS011;42885;49.754;18.636;2022-12-18T04:38:27;62.88;;;21.85;;
56991;SDS011;42885;49.754;18.636;2022-12-18T04:41:00;65.93;;;23.43;;
56991;SDS011;42885;49.754;18.636;2022-12-18T04:43:31;62.30;;;22.00;;
56991;SDS011;42885;49.754;18.636;2022-12-18T04:46:03;67.03;;;23.07;;
56991;SDS011;42885;49.754;18.636;2022-12-18T04:48:35;63.02;;;22.40;;
56991;SDS011;42885;49.754;18.636;2022-12-18T04:51:07;61.53;;;21.73;;
56991;SDS011;42885;49.754;18.636;2022-12-18T04:53:38;61.70;;;21.77;;
56991;SDS011;42885;49.754;18.636;2022-12-18T04:56:13;63.10;;;21.10;;
56991;SDS011;42885;49.754;18.636;2022-12-18T04:58:45;57.70;;;22.07;;
56991;SDS011;42885;49.754;18.636;2022-12-18T05:01:16;61.55;;;22.75;;
56991;SDS011;42885;49.754;18.636;2022-12-18T05:03:48;58.73;;;20.50;;
56991;SDS011;42885;49.754;18.636;2022-12-18T05:06:21;60.93;;;22.50;;
56991;SDS011;42885;49.754;18.636;2022-12-18T05:08:52;53.95;;;19.95;;
56991;SDS011;42885;49.754;18.636;2022-12-18T05:11:23;56.35;;;21.70;;
56991;SDS011;42885;49.754;18.636;2022-12-18T05:13:53;57.33;;;20.70;;
56991;SDS011;42885;49.754;18.636;2022-12-18T05:16:25;58.55;;;19.92;;
56991;SDS011;42885;49.754;18.636;2022-12-18T05:18:56;58.42;;;19.37;;
56991;SDS011;42885;49.754;18.636;2022-12-18T05:21:27;63.20;;;20.50;;
56991;SDS011;42885;49.754;18.636;2022-12-18T05:23:58;57.67;;;20.23;;
56991;SDS011;42885;49.754;18.636;2022-12-18T05:26:29;64.60;;;19.62;;
56991;SDS011;42885;49.754;18.636;2022-12-18T05:29:00;55.23;;;20.20;;
56991;SDS011;42885;49.754;18.636;2022-12-18T05:31:31;54.48;;;19.60;;
56991;SDS011;42885;49.754;18.636;2022-12-18T05:34:02;55.05;;;19.52;;
56991;SDS011;42885;49.754;18.636;2022-12-18T05:36:33;55.70;;;20.43;;
56991;SDS011;42885;49.754;18.636;2022-12-18T05:39:04;57.93;;;20.00;;
56991;SDS011;42885;49.754;18.636;2022-12-18T05:41:35;53.90;;;19.35;;
56991;SDS011;42885;49.754;18.636;2022-12-18T05:44:06;60.17;;;19.97;;
56991;SDS011;42885;49.754;18.636;2022-12-18T05:46:37;50.43;;;18.60;;
56991;SDS011;42885;49.754;18.636;2022-12-18T05:51:41;60.38;;;19.40;;
56991;SDS011;42885;49.754;18.636;2022-12-18T05:54:12;55.85;;;20.30;;
56991;SDS011;42885;49.754;18.636;2022-12-18T05:56:43;54.23;;;19.85;;
56991;SDS011;42885;49.754;18.636;2022-12-18T05:59:14;60.23;;;21.40;;
56991;SDS011;42885;49.754;18.636;2022-12-18T06:01:45;55.13;;;19.13;;
56991;SDS011;42885;49.754;18.636;2022-12-18T06:04:16;55.78;;;20.72;;
56991;SDS011;42885;49.754;18.636;2022-12-18T06:06:47;55.67;;;21.00;;
56991;SDS011;42885;49.754;18.636;2022-12-18T06:09:18;57.05;;;19.85;;
56991;SDS011;42885;49.754;18.636;2022-12-18T06:11:51;59.75;;;20.90;;
56991;SDS011;42885;49.754;18.636;2022-12-18T06:14:22;58.50;;;20.85;;
56991;SDS011;42885;49.754;18.636;2022-12-18T06:16:53;52.33;;;20.55;;
56991;SDS011;42885;49.754;18.636;2022-12-18T06:19:24;50.80;;;18.27;;
56991;SDS011;42885;49.754;18.636;2022-12-18T06:21:55;55.80;;;18.90;;
56991;SDS011;42885;49.754;18.636;2022-12-18T06:24:27;50.48;;;18.95;;
56991;SDS011;42885;49.754;18.636;2022-12-18T06:26:59;57.13;;;18.95;;
56991;SDS011;42885;49.754;18.636;2022-12-18T06:29:30;55.90;;;19.60;;
56991;SDS011;42885;49.754;18.636;2022-12-18T06:32:01;56.65;;;19.98;;
56991;SDS011;42885;49.754;18.636;2022-12-18T06:34:32;57.17;;;20.63;;
56991;SDS011;42885;49.754;18.636;2022-12-18T06:37:04;53.73;;;18.75;;
56991;SDS011;42885;49.754;18.636;2022-12-18T06:39:35;55.90;;;19.73;;
56991;SDS011;42885;49.754;18.636;2022-12-18T06:42:06;54.38;;;19.40;;
56991;SDS011;42885;49.754;18.636;2022-12-18T06:44:37;57.05;;;19.57;;
56991;SDS011;42885;49.754;18.636;2022-12-18T06:47:08;52.10;;;19.10;;
56991;SDS011;42885;49.754;18.636;2022-12-18T06:49:39;55.07;;;19.13;;
56991;SDS011;42885;49.754;18.636;2022-12-18T06:52:10;53.68;;;18.77;;
56991;SDS011;42885;49.754;18.636;2022-12-18T06:54:41;42.90;;;16.65;;
56991;SDS011;42885;49.754;18.636;2022-12-18T06:57:12;46.68;;;18.30;;
56991;SDS011;42885;49.754;18.636;2022-12-18T06:59:43;60.78;;;19.35;;
56991;SDS011;42885;49.754;18.636;2022-12-18T07:02:14;60.08;;;19.57;;
56991;SDS011;42885;49.754;18.636;2022-12-18T07:04:45;57.62;;;19.60;;
56991;SDS011;42885;49.754;18.636;2022-12-18T07:07:19;65.42;;;20.65;;
56991;SDS011;42885;49.754;18.636;2022-12-18T07:09:50;61.25;;;20.92;;
56991;SDS011;42885;49.754;18.636;2022-12-18T07:12:21;52.15;;;20.02;;
56991;SDS011;42885;49.754;18.636;2022-12-18T07:14:52;60.13;;;21.67;;
56991;SDS011;42885;49.754;18.636;2022-12-18T07:17:23;60.15;;;21.40;;
56991;SDS011;42885;49.754;18.636;2022-12-18T07:19:54;48.25;;;18.60;;
56991;SDS011;42885;49.754;18.636;2022-12-18T07:22:25;55.60;;;19.35;;
56991;SDS011;42885;49.754;18.636;2022-12-18T07:24:56;57.60;;;20.32;;
56991;SDS011;42885;49.754;18.636;2022-12-18T07:27:27;59.18;;;19.12;;
56991;SDS011;42885;49.754;18.636;2022-12-18T07:29:58;53.55;;;19.57;;
56991;SDS011;42885;49.754;18.636;2022-12-18T07:32:29;53.23;;;19.02;;
56991;SDS011;42885;49.754;18.636;2022-12-18T07:35:00;54.48;;;19.73;;
56991;SDS011;42885;49.754;18.636;2022-12-18T07:37:31;59.17;;;19.50;;
56991;SDS011;42885;49.754;18.636;2022-12-18T07:40:03;59.88;;;20.52;;
56991;SDS011;42885;49.754;18.636;2022-12-18T07:42:35;60.92;;;20.23;;
56991;SDS011;42885;49.754;18.636;2022-12-18T07:45:06;59.10;;;21.75;;
56991;SDS011;42885;49.754;18.636;2022-12-18T07:47:38;50.67;;;20.62;;
56991;SDS011;42885;49.754;18.636;2022-12-18T07:50:10;58.17;;;20.52;;
56991;SDS011;42885;49.754;18.636;2022-12-18T07:52:42;59.30;;;21.00;;
56991;SDS011;42885;49.754;18.636;2022-12-18T07:55:13;59.70;;;21.07;;
56991;SDS011;42885;49.754;18.636;2022-12-18T07:57:44;56.45;;;20.70;;
56991;SDS011;42885;49.754;18.636;2022-12-18T08:00:15;63.38;;;20.65;;
56991;SDS011;42885;49.754;18.636;2022-12-18T08:02:46;61.40;;;21.85;;
56991;SDS011;42885;49.754;18.636;2022-12-18T08:05:17;63.92;;;21.97;;
56991;SDS011;42885;49.754;18.636;2022-12-18T08:07:49;60.53;;;20.80;;
56991;SDS011;42885;49.754;18.636;2022-12-18T08:10:20;69.75;;;23.20;;
56991;SDS011;42885;49.754;18.636;2022-12-18T08:12:51;64.00;;;23.10;;
56991;SDS011;42885;49.754;18.636;2022-12-18T08:15:22;65.95;;;22.13;;
56991;SDS011;42885;49.754;18.636;2022-12-18T08:17:56;62.45;;;22.05;;
56991;SDS011;42885;49.754;18.636;2022-12-18T08:20:26;60.67;;;22.13;;
56991;SDS011;42885;49.754;18.636;2022-12-18T08:22:58;64.53;;;22.50;;
56991;SDS011;42885;49.754;18.636;2022-12-18T08:25:29;62.50;;;22.22;;
56991;SDS011;42885;49.754;18.636;2022-12-18T08:28:01;67.72;;;23.52;;
56991;SDS011;42885;49.754;18.636;2022-12-18T08:30:32;72.25;;;23.40;;
56991;SDS011;42885;49.754;18.636;2022-12-18T08:33:02;66.37;;;23.65;;
56991;SDS011;42885;49.754;18.636;2022-12-18T08:35:35;64.60;;;22.75;;
56991;SDS011;42885;49.754;18.636;2022-12-18T08:38:06;68.78;;;22.27;;
56991;SDS011;42885;49.754;18.636;2022-12-18T08:40:37;68.50;;;22.87;;
56991;SDS011;42885;49.754;18.636;2022-12-18T08:43:13;64.07;;;22.55;;
56991;SDS011;42885;49.754;18.636;2022-12-18T08:45:59;64.27;;;22.32;;
56991;SDS011;42885;49.754;18.636;2022-12-18T08:48:30;63.13;;;23.25;;
56991;SDS011;42885;49.754;18.636;2022-12-18T08:51:01;61.88;;;22.10;;
56991;SDS011;42885;49.754;18.636;2022-12-18T08:53:32;80.28;;;30.92;;
56991;SDS011;42885;49.754;18.636;2022-12-18T08:56:03;63.85;;;23.10;;
56991;SDS011;42885;49.754;18.636;2022-12-18T08:58:34;67.17;;;22.80;;
56991;SDS011;42885;49.754;18.636;2022-12-18T09:01:07;61.30;;;22.82;;
56991;SDS011;42885;49.754;18.636;2022-12-18T09:03:39;65.57;;;23.22;;
56991;SDS011;42885;49.754;18.636;2022-12-18T09:06:13;69.72;;;24.10;;
56991;SDS011;42885;49.754;18.636;2022-12-18T09:08:47;65.78;;;22.87;;
56991;SDS011;42885;49.754;18.636;2022-12-18T09:11:20;71.07;;;25.17;;
56991;SDS011;42885;49.754;18.636;2022-12-18T09:13:53;65.28;;;22.52;;
56991;SDS011;42885;49.754;18.636;2022-12-18T09:16:26;64.72;;;21.90;;
56991;SDS011;42885;49.754;18.636;2022-12-18T09:18:58;61.02;;;21.73;;
56991;SDS011;42885;49.754;18.636;2022-12-18T09:21:31;67.40;;;23.77;;
56991;SDS011;42885;49.754;18.636;2022-12-18T09:24:04;61.28;;;22.32;;
56991;SDS011;42885;49.754;18.636;2022-12-18T09:26:35;60.03;;;23.12;;
56991;SDS011;42885;49.754;18.636;2022-12-18T09:29:07;65.57;;;23.80;;
56991;SDS011;42885;49.754;18.636;2022-12-18T09:31:38;60.92;;;22.07;;
56991;SDS011;42885;49.754;18.636;2022-12-18T09:34:09;67.12;;;23.87;;
56991;SDS011;42885;49.754;18.636;2022-12-18T09:36:40;66.92;;;23.52;;
56991;SDS011;42885;49.754;18.636;2022-12-18T09:39:12;64.25;;;24.02;;
56991;SDS011;42885;49.754;18.636;2022-12-18T09:41:44;70.12;;;23.95;;
56991;SDS011;42885;49.754;18.636;2022-12-18T09:49:42;69.50;;;24.23;;
56991;SDS011;42885;49.754;18.636;2022-12-18T09:52:21;69.53;;;24.65;;
56991;SDS011;42885;49.754;18.636;2022-12-18T09:57:25;73.92;;;23.25;;
56991;SDS011;42885;49.754;18.636;2022-12-18T10:00:02;73.78;;;26.25;;
56991;SDS011;42885;49.754;18.636;2022-12-18T10:02:38;70.10;;;24.77;;
56991;SDS011;42885;49.754;18.636;2022-12-18T10:05:13;70.62;;;25.00;;
56991;SDS011;42885;49.754;18.636;2022-12-18T10:10:53;77.83;;;26.97;;
56991;SDS011;42885;49.754;18.636;2022-12-18T10:16:22;77.82;;;26.68;;
56991;SDS011;42885;49.754;18.636;2022-12-18T10:24:33;72.05;;;27.42;;
56991;SDS011;42885;49.754;18.636;2022-12-18T10:27:16;71.37;;;26.48;;
56991;SDS011;42885;49.754;18.636;2022-12-18T10:29:48;77.25;;;28.12;;
56991;SDS011;42885;49.754;18.636;2022-12-18T10:32:27;68.17;;;27.50;;
56991;SDS011;42885;49.754;18.636;2022-12-18T10:34:55;72.15;;;27.22;;
56991;SDS011;42885;49.754;18.636;2022-12-18T10:37:28;70.10;;;28.52;;
56991;SDS011;42885;49.754;18.636;2022-12-18T10:40:07;74.97;;;26.90;;
56991;SDS011;42885;49.754;18.636;2022-12-18T10:42:40;77.72;;;28.00;;
56991;SDS011;42885;49.754;18.636;2022-12-18T10:45:14;67.57;;;27.60;;
56991;SDS011;42885;49.754;18.636;2022-12-18T10:47:47;70.47;;;27.23;;
56991;SDS011;42885;49.754;18.636;2022-12-18T10:50:27;69.20;;;26.87;;
56991;SDS011;42885;49.754;18.636;2022-12-18T10:52:59;70.10;;;27.45;;
56991;SDS011;42885;49.754;18.636;2022-12-18T10:55:33;77.62;;;29.95;;
56991;SDS011;42885;49.754;18.636;2022-12-18T11:01:07;65.55;;;28.62;;
56991;SDS011;42885;49.754;18.636;2022-12-18T11:03:43;68.42;;;30.75;;
56991;SDS011;42885;49.754;18.636;2022-12-18T11:09:05;71.35;;;29.85;;
56991;SDS011;42885;49.754;18.636;2022-12-18T11:11:38;69.85;;;30.68;;
56991;SDS011;42885;49.754;18.636;2022-12-18T11:14:13;72.15;;;32.73;;
56991;SDS011;42885;49.754;18.636;2022-12-18T11:16:46;69.83;;;31.47;;
56991;SDS011;42885;49.754;18.636;2022-12-18T11:19:20;76.17;;;33.70;;
56991;SDS011;42885;49.754;18.636;2022-12-18T11:22:02;74.27;;;32.98;;
56991;SDS011;42885;49.754;18.636;2022-12-18T11:24:35;71.85;;;32.28;;
56991;SDS011;42885;49.754;18.636;2022-12-18T11:27:15;76.00;;;33.50;;
56991;SDS011;42885;49.754;18.636;2022-12-18T11:29:47;71.50;;;33.42;;
56991;SDS011;42885;49.754;18.636;2022-12-18T11:35:32;72.50;;;33.10;;
56991;SDS011;42885;49.754;18.636;2022-12-18T11:37:53;73.87;;;33.53;;
56991;SDS011;42885;49.754;18.636;2022-12-18T11:40:36;73.47;;;34.35;;
56991;SDS011;42885;49.754;18.636;2022-12-18T11:43:21;92.88;;;49.98;;
56991;SDS011;42885;49.754;18.636;2022-12-18T11:46:17;68.10;;;32.33;;
56991;SDS011;42885;49.754;18.636;2022-12-18T11:48:46;67.05;;;32.60;;
56991;SDS011;42885;49.754;18.636;2022-12-18T11:51:29;68.30;;;33.75;;
56991;SDS011;42885;49.754;18.636;2022-12-18T11:53:58;68.60;;;33.23;;
56991;SDS011;42885;49.754;18.636;2022-12-18T11:56:31;68.75;;;33.55;;
56991;SDS011;42885;49.754;18.636;2022-12-18T12:01:56;74.10;;;34.75;;
56991;SDS011;42885;49.754;18.636;2022-12-18T12:07:23;75.25;;;34.48;;
56991;SDS011;42885;49.754;18.636;2022-12-18T12:10:04;75.00;;;36.68;;
56991;SDS011;42885;49.754;18.636;2022-12-18T12:12:51;70.20;;;33.95;;
56991;SDS011;42885;49.754;18.636;2022-12-18T12:16:26;75.83;;;37.28;;
56991;SDS011;42885;49.754;18.636;2022-12-18T12:24:09;70.85;;;34.95;;
56991;SDS011;42885;49.754;18.636;2022-12-18T12:27:43;71.55;;;35.45;;
56991;SDS011;42885;49.754;18.636;2022-12-18T12:29:41;74.00;;;34.60;;
56991;SDS011;42885;49.754;18.636;2022-12-18T12:32:25;75.00;;;36.33;;
56991;SDS011;42885;49.754;18.636;2022-12-18T12:40:43;68.85;;;34.63;;
56991;SDS011;42885;49.754;18.636;2022-12-18T12:44:00;78.85;;;34.65;;
56991;SDS011;42885;49.754;18.636;2022-12-18T12:45:54;75.78;;;36.58;;
56991;SDS011;42885;49.754;18.636;2022-12-18T12:48:33;84.87;;;36.45;;
56991;SDS011;42885;49.754;18.636;2022-12-18T12:51:11;81.45;;;35.80;;
56991;SDS011;42885;49.754;18.636;2022-12-18T12:56:13;80.60;;;33.33;;
56991;SDS011;42885;49.754;18.636;2022-12-18T12:58:52;78.33;;;33.10;;
56991;SDS011;42885;49.754;18.636;2022-12-18T13:12:04;82.80;;;34.78;;
56991;SDS011;42885;49.754;18.636;2022-12-18T13:14:55;90.60;;;36.80;;
56991;SDS011;42885;49.754;18.636;2022-12-18T13:17:29;92.10;;;37.58;;
56991;SDS011;42885;49.754;18.636;2022-12-18T13:20:08;90.53;;;37.00;;
56991;SDS011;42885;49.754;18.636;2022-12-18T13:22:45;88.30;;;37.57;;
56991;SDS011;42885;49.754;18.636;2022-12-18T13:25:33;101.95;;;40.75;;
56991;SDS011;42885;49.754;18.636;2022-12-18T13:30:48;97.65;;;38.83;;
56991;SDS011;42885;49.754;18.636;2022-12-18T13:36:01;101.73;;;37.63;;
56991;SDS011;42885;49.754;18.636;2022-12-18T13:38:40;83.10;;;35.10;;
56991;SDS011;42885;49.754;18.636;2022-12-18T13:43:51;87.80;;;34.60;;
56991;SDS011;42885;49.754;18.636;2022-12-18T13:46:29;98.97;;;37.00;;
56991;SDS011;42885;49.754;18.636;2022-12-18T13:49:13;91.05;;;35.95;;
56991;SDS011;42885;49.754;18.636;2022-12-18T13:51:49;103.87;;;38.57;;
56991;SDS011;42885;49.754;18.636;2022-12-18T13:54:37;93.60;;;38.45;;
56991;SDS011;42885;49.754;18.636;2022-12-18T14:02:51;99.43;;;41.20;;
56991;SDS011;42885;49.754;18.636;2022-12-18T14:05:29;112.42;;;39.65;;
56991;SDS011;42885;49.754;18.636;2022-12-18T14:07:59;110.20;;;41.10;;
56991;SDS011;42885;49.754;18.636;2022-12-18T14:10:30;112.60;;;41.48;;
56991;SDS011;42885;49.754;18.636;2022-12-18T14:13:05;117.35;;;43.55;;
56991;SDS011;42885;49.754;18.636;2022-12-18T14:15:42;117.22;;;41.90;;
56991;SDS011;42885;49.754;18.636;2022-12-18T14:21:24;112.97;;;40.40;;
56991;SDS011;42885;49.754;18.636;2022-12-18T14:26:49;107.10;;;40.67;;
56991;SDS011;42885;49.754;18.636;2022-12-18T14:29:22;114.27;;;41.80;;
56991;SDS011;42885;49.754;18.636;2022-12-18T14:32:04;122.70;;;44.63;;
56991;SDS011;42885;49.754;18.636;2022-12-18T14:34:37;120.22;;;45.23;;
56991;SDS011;42885;49.754;18.636;2022-12-18T14:37:11;121.97;;;47.62;;
56991;SDS011;42885;49.754;18.636;2022-12-18T14:39:52;131.30;;;48.60;;
56991;SDS011;42885;49.754;18.636;2022-12-18T14:42:25;130.85;;;47.83;;
56991;SDS011;42885;49.754;18.636;2022-12-18T14:48:15;129.45;;;48.85;;
56991;SDS011;42885;49.754;18.636;2022-12-18T14:50:58;133.87;;;49.20;;
56991;SDS011;42885;49.754;18.636;2022-12-18T14:53:35;147.15;;;52.43;;
56991;SDS011;42885;49.754;18.636;2022-12-18T14:56:14;154.20;;;54.42;;
56991;SDS011;42885;49.754;18.636;2022-12-18T14:59:00;165.45;;;61.83;;
56991;SDS011;42885;49.754;18.636;2022-12-18T15:01:36;177.95;;;64.90;;
56991;SDS011;42885;49.754;18.636;2022-12-18T15:10:21;150.90;;;52.62;;
56991;SDS011;42885;49.754;18.636;2022-12-18T15:12:35;146.77;;;50.88;;
56991;SDS011;42885;49.754;18.636;2022-12-18T15:20:50;182.78;;;59.77;;
56991;SDS011;42885;49.754;18.636;2022-12-18T15:23:35;170.45;;;54.58;;
56991;SDS011;42885;49.754;18.636;2022-12-18T15:26:07;167.72;;;53.50;;
56991;SDS011;42885;49.754;18.636;2022-12-18T15:28:54;198.20;;;62.60;;
56991;SDS011;42885;49.754;18.636;2022-12-18T15:31:30;225.68;;;67.50;;
56991;SDS011;42885;49.754;18.636;2022-12-18T15:36:41;249.95;;;71.65;;
56991;SDS011;42885;49.754;18.636;2022-12-18T15:39:13;236.57;;;70.17;;
56991;SDS011;42885;49.754;18.636;2022-12-18T15:41:44;237.82;;;70.47;;
56991;SDS011;42885;49.754;18.636;2022-12-18T15:44:23;181.80;;;56.70;;
56991;SDS011;42885;49.754;18.636;2022-12-18T15:46:54;166.00;;;52.90;;
56991;SDS011;42885;49.754;18.636;2022-12-18T15:49:25;162.62;;;52.33;;
56991;SDS011;42885;49.754;18.636;2022-12-18T15:51:56;197.82;;;59.77;;
56991;SDS011;42885;49.754;18.636;2022-12-18T15:54:29;184.28;;;59.00;;
56991;SDS011;42885;49.754;18.636;2022-12-18T15:57:18;156.40;;;51.60;;
56991;SDS011;42885;49.754;18.636;2022-12-18T15:59:55;181.05;;;52.93;;
56991;SDS011;42885;49.754;18.636;2022-12-18T16:02:27;202.35;;;58.35;;
56991;SDS011;42885;49.754;18.636;2022-12-18T16:04:58;207.47;;;59.42;;
56991;SDS011;42885;49.754;18.636;2022-12-18T16:07:28;221.93;;;62.62;;
56991;SDS011;42885;49.754;18.636;2022-12-18T16:09:59;233.13;;;64.05;;
56991;SDS011;42885;49.754;18.636;2022-12-18T16:12:30;253.22;;;69.65;;
56991;SDS011;42885;49.754;18.636;2022-12-18T16:15:02;242.35;;;69.90;;
56991;SDS011;42885;49.754;18.636;2022-12-18T16:17:34;245.17;;;69.00;;
56991;SDS011;42885;49.754;18.636;2022-12-18T16:20:05;318.52;;;84.03;;
56991;SDS011;42885;49.754;18.636;2022-12-18T16:22:37;385.80;;;93.43;;
56991;SDS011;42885;49.754;18.636;2022-12-18T16:25:10;470.65;;;113.55;;
56991;SDS011;42885;49.754;18.636;2022-12-18T16:27:42;523.25;;;126.58;;
56991;SDS011;42885;49.754;18.636;2022-12-18T16:30:14;571.90;;;143.60;;
56991;SDS011;42885;49.754;18.636;2022-12-18T16:32:47;627.42;;;163.07;;
56991;SDS011;42885;49.754;18.636;2022-12-18T16:35:18;641.02;;;166.28;;
56991;SDS011;42885;49.754;18.636;2022-12-18T16:37:50;787.12;;;212.12;;
56991;SDS011;42885;49.754;18.636;2022-12-18T16:40:21;777.78;;;213.25;;